Nicholasville, Kentucky
Current Conditions -  °F | °C
As of 9:54 PM on Monday 20 Oct 2014 (Local Time) from KLEX Reporting Station
Few Clouds Few Clouds  
Wind Chill: 57°   Ceiling: Unl
Heat Index: 57°   Visibility: 10mi
Dew Point: 48°   Wind: 9mph
Humidity: 72%   Direction: 200°SSW
Pressure: 29.94"   Gusts: NA
Location:  37.89°N, 84.57°W
Report Text: KLEX 210154Z 20008KT 10SM FEW046 14/09 A2994 RMK AO2 LTG DSNT W SLP137 T01390089
Loading
Personal Weather Stations






























Interactive Weather Map
Tropical Storm Tracking
New forecast layout! Learn more

10-Day Weather Forecast

Advertisements
Track Severe Weather on mobile